Terminal Aerodrome Forecast
Issued by NWS Upton, NY

Home | Current Version | Previous Version | Text Only | Print | Product List | Glossary On
Versions: 1 2 3 4 5 6 7 8 9 10 11 12 13 14 15 16 17 18 19 20 21 22 23 24 25 26
000
FTUS41 KOKX 222300
TAFJFK
TAF
KJFK 222333Z 2300/2406 22015KT P6SM SCT050 BKN100 WS020/26040KT
     FM230600 23010KT P6SM BKN100 WS020/26040KT
     FM231500 22010G17KT P6SM BKN100
     FM231900 19010KT P6SM SCT060 BKN100
     FM232300 18005KT P6SM SCT008 BKN100=

USA.gov is the U.S. government's official web portal to all federal, state and local government web resources and services.